Terminal Aerodrome Forecast
Issued by NWS Sterling, VA

Current Version | Previous Version | Text Only | Print | Product List | Glossary Off
Versions: 1 2 3 4 5 6 7 8 9 10 11 12 13 14

000
FTUS41 KLWX 251140
TAFMRB
TAF
KMRB 251140Z 2512/2612 00000KT P6SM OVC090
     FM252000 19006KT P6SM OVC080
     FM252100 19006KT P6SM RA OVC070
     FM260000 19007KT 3SM -RA OVC020
     FM260300 VRB03KT 3SM -RA OVC008
     FM260400 VRB03KT 3SM -RA OVC003
     FM260900 00000KT 3SM -RA OVC008
     FM261000 VRB03KT P6SM OVC008=

USA.gov is the U.S. government's official web portal to all federal, state and local government web resources and services.